sensor_id;sensor_type;location;lat;lon;timestamp;pressure;altitude;pressure_sealevel;temperature;humidity
27643;BME280;15053;48.618;10.024;2023-05-08T00:01:59;94532.31;;;14.79;94.95
27643;BME280;15053;48.618;10.024;2023-05-08T00:04:26;94536.34;;;14.85;95.07
27643;BME280;15053;48.618;10.024;2023-05-08T00:06:52;94538.66;;;14.87;95.09
27643;BME280;15053;48.618;10.024;2023-05-08T00:09:19;94530.31;;;14.85;94.95
27643;BME280;15053;48.618;10.024;2023-05-08T00:11:45;94536.03;;;14.87;95.04
27643;BME280;15053;48.618;10.024;2023-05-08T00:14:12;94534.34;;;14.82;95.31
27643;BME280;15053;48.618;10.024;2023-05-08T00:16:39;94536.50;;;14.80;95.35
27643;BME280;15053;48.618;10.024;2023-05-08T00:19:05;94539.13;;;14.80;95.55
27643;BME280;15053;48.618;10.024;2023-05-08T00:21:32;94536.50;;;14.80;95.28
27643;BME280;15053;48.618;10.024;2023-05-08T00:23:59;94534.31;;;14.73;95.37
27643;BME280;15053;48.618;10.024;2023-05-08T00:26:25;94534.63;;;14.72;95.12
27643;BME280;15053;48.618;10.024;2023-05-08T00:28:52;94536.91;;;14.65;95.44
27643;BME280;15053;48.618;10.024;2023-05-08T00:31:18;94535.34;;;14.55;95.80
27643;BME280;15053;48.618;10.024;2023-05-08T00:33:45;94538.41;;;14.49;95.78
27643;BME280;15053;48.618;10.024;2023-05-08T00:36:11;94541.34;;;14.47;96.32
27643;BME280;15053;48.618;10.024;2023-05-08T00:38:40;94536.84;;;14.48;96.11
27643;BME280;15053;48.618;10.024;2023-05-08T00:41:07;94542.09;;;14.48;96.54
27643;BME280;15053;48.618;10.024;2023-05-08T00:43:33;94545.66;;;14.52;96.59
27643;BME280;15053;48.618;10.024;2023-05-08T00:46:01;94539.34;;;14.53;96.55
27643;BME280;15053;48.618;10.024;2023-05-08T00:48:29;94532.56;;;14.52;96.24
27643;BME280;15053;48.618;10.024;2023-05-08T00:50:57;94541.84;;;14.58;96.38
27643;BME280;15053;48.618;10.024;2023-05-08T00:53:25;94531.19;;;14.54;96.31
27643;BME280;15053;48.618;10.024;2023-05-08T00:55:52;94530.56;;;14.57;95.89
27643;BME280;15053;48.618;10.024;2023-05-08T00:58:20;94540.63;;;14.64;95.76
27643;BME280;15053;48.618;10.024;2023-05-08T01:00:49;94542.16;;;14.65;95.50
27643;BME280;15053;48.618;10.024;2023-05-08T01:03:16;94539.06;;;14.63;95.24
27643;BME280;15053;48.618;10.024;2023-05-08T01:05:43;94550.47;;;14.67;95.09
27643;BME280;15053;48.618;10.024;2023-05-08T01:08:09;94551.41;;;14.62;94.84
27643;BME280;15053;48.618;10.024;2023-05-08T01:11:11;94552.31;;;14.58;95.16
27643;BME280;15053;48.618;10.024;2023-05-08T01:19:25;94546.41;;;14.44;95.39
27643;BME280;15053;48.618;10.024;2023-05-08T01:21:59;94557.66;;;14.44;95.56
27643;BME280;15053;48.618;10.024;2023-05-08T01:32:42;94550.88;;;14.43;95.68
27643;BME280;15053;48.618;10.024;2023-05-08T01:35:22;94557.06;;;14.47;96.06
27643;BME280;15053;48.618;10.024;2023-05-08T01:37:56;94558.91;;;14.47;95.94
27643;BME280;15053;48.618;10.024;2023-05-08T01:40:51;94559.69;;;14.47;95.93
27643;BME280;15053;48.618;10.024;2023-05-08T01:43:25;94562.59;;;14.46;95.43
27643;BME280;15053;48.618;10.024;2023-05-08T01:45:56;94563.69;;;14.45;95.51
27643;BME280;15053;48.618;10.024;2023-05-08T01:48:30;94562.13;;;14.44;95.86
27643;BME280;15053;48.618;10.024;2023-05-08T01:51:02;94559.78;;;14.42;95.75
27643;BME280;15053;48.618;10.024;2023-05-08T01:53:42;94563.06;;;14.39;95.52
27643;BME280;15053;48.618;10.024;2023-05-08T01:56:13;94570.13;;;14.39;95.81
27643;BME280;15053;48.618;10.024;2023-05-08T01:58:43;94567.78;;;14.37;95.42
27643;BME280;15053;48.618;10.024;2023-05-08T02:01:12;94571.50;;;14.36;95.18
27643;BME280;15053;48.618;10.024;2023-05-08T02:03:40;94573.47;;;14.31;95.39
27643;BME280;15053;48.618;10.024;2023-05-08T02:06:09;94571.25;;;14.24;95.47
27643;BME280;15053;48.618;10.024;2023-05-08T02:08:36;94575.84;;;14.18;95.51
27643;BME280;15053;48.618;10.024;2023-05-08T02:11:04;94581.69;;;14.15;95.73
27643;BME280;15053;48.618;10.024;2023-05-08T02:13:33;94572.78;;;14.16;96.28
27643;BME280;15053;48.618;10.024;2023-05-08T02:16:02;94573.56;;;14.17;96.31
27643;BME280;15053;48.618;10.024;2023-05-08T02:18:30;94578.00;;;14.16;96.57
27643;BME280;15053;48.618;10.024;2023-05-08T02:20:58;94575.06;;;14.18;96.08
27643;BME280;15053;48.618;10.024;2023-05-08T02:23:26;94566.94;;;14.19;96.24
27643;BME280;15053;48.618;10.024;2023-05-08T02:25:53;94557.69;;;14.22;96.73
27643;BME280;15053;48.618;10.024;2023-05-08T02:28:22;94553.84;;;14.19;96.61
27643;BME280;15053;48.618;10.024;2023-05-08T02:30:49;94562.63;;;14.24;96.84
27643;BME280;15053;48.618;10.024;2023-05-08T02:33:17;94563.56;;;14.28;96.86
27643;BME280;15053;48.618;10.024;2023-05-08T02:35:45;94565.88;;;14.29;96.91
27643;BME280;15053;48.618;10.024;2023-05-08T02:38:14;94561.41;;;14.30;96.82
27643;BME280;15053;48.618;10.024;2023-05-08T02:40:46;94561.41;;;14.30;96.98
27643;BME280;15053;48.618;10.024;2023-05-08T02:43:13;94559.88;;;14.29;97.03
27643;BME280;15053;48.618;10.024;2023-05-08T02:45:51;94568.03;;;14.27;96.44
27643;BME280;15053;48.618;10.024;2023-05-08T02:48:40;94559.72;;;14.25;96.61
27643;BME280;15053;48.618;10.024;2023-05-08T02:53:58;94564.19;;;14.25;96.52
27643;BME280;15053;48.618;10.024;2023-05-08T02:59:13;94566.78;;;14.25;96.75
27643;BME280;15053;48.618;10.024;2023-05-08T03:01:58;94560.97;;;14.28;97.13
27643;BME280;15053;48.618;10.024;2023-05-08T03:04:28;94556.31;;;14.25;97.27
27643;BME280;15053;48.618;10.024;2023-05-08T03:06:56;94561.41;;;14.30;97.32
27643;BME280;15053;48.618;10.024;2023-05-08T03:09:27;94557.84;;;14.26;97.68
27643;BME280;15053;48.618;10.024;2023-05-08T03:12:00;94562.03;;;14.27;97.41
27643;BME280;15053;48.618;10.024;2023-05-08T03:14:31;94556.19;;;14.30;98.24
27643;BME280;15053;48.618;10.024;2023-05-08T03:17:02;94559.56;;;14.30;98.05
27643;BME280;15053;48.618;10.024;2023-05-08T03:19:35;94559.28;;;14.32;97.83
27643;BME280;15053;48.618;10.024;2023-05-08T03:22:04;94559.13;;;14.28;98.42
27643;BME280;15053;48.618;10.024;2023-05-08T03:24:34;94554.28;;;14.22;98.69
27643;BME280;15053;48.618;10.024;2023-05-08T03:27:02;94562.81;;;14.27;98.79
27643;BME280;15053;48.618;10.024;2023-05-08T03:29:30;94557.38;;;14.24;98.60
27643;BME280;15053;48.618;10.024;2023-05-08T03:31:59;94566.66;;;14.30;99.22
27643;BME280;15053;48.618;10.024;2023-05-08T03:34:28;94568.81;;;14.28;99.22
27643;BME280;15053;48.618;10.024;2023-05-08T03:36:55;94569.59;;;14.28;99.25
27643;BME280;15053;48.618;10.024;2023-05-08T03:39:24;94577.75;;;14.27;99.17
27643;BME280;15053;48.618;10.024;2023-05-08T03:41:50;94572.03;;;14.25;99.44
27643;BME280;15053;48.618;10.024;2023-05-08T03:44:17;94579.59;;;14.26;99.46
27643;BME280;15053;48.618;10.024;2023-05-08T03:46:46;94573.09;;;14.24;99.36
27643;BME280;15053;48.618;10.024;2023-05-08T03:49:13;94575.72;;;14.24;99.54
27643;BME280;15053;48.618;10.024;2023-05-08T03:51:40;94581.41;;;14.17;99.05
27643;BME280;15053;48.618;10.024;2023-05-08T03:54:07;94573.97;;;14.10;99.61
27643;BME280;15053;48.618;10.024;2023-05-08T03:56:34;94577.97;;;14.08;99.50
27643;BME280;15053;48.618;10.024;2023-05-08T03:59:23;94584.56;;;14.05;100.00
27643;BME280;15053;48.618;10.024;2023-05-08T04:02:08;94583.91;;;14.00;99.84
27643;BME280;15053;48.618;10.024;2023-05-08T04:04:40;94578.31;;;13.93;99.84
27643;BME280;15053;48.618;10.024;2023-05-08T04:07:27;94585.41;;;13.92;99.81
27643;BME280;15053;48.618;10.024;2023-05-08T04:10:15;94588.63;;;13.89;100.00
27643;BME280;15053;48.618;10.024;2023-05-08T04:13:06;94588.13;;;13.87;100.00
27643;BME280;15053;48.618;10.024;2023-05-08T04:15:38;94592.91;;;13.85;100.00
27643;BME280;15053;48.618;10.024;2023-05-08T04:18:11;94594.75;;;13.85;100.00
27643;BME280;15053;48.618;10.024;2023-05-08T04:20:40;94595.19;;;13.78;100.00
27643;BME280;15053;48.618;10.024;2023-05-08T04:23:13;94598.75;;;13.82;100.00
27643;BME280;15053;48.618;10.024;2023-05-08T04:25:41;94599.81;;;13.81;100.00
27643;BME280;15053;48.618;10.024;2023-05-08T04:28:10;94599.31;;;13.79;100.00
27643;BME280;15053;48.618;10.024;2023-05-08T04:30:38;94605.16;;;13.76;100.00
27643;BME280;15053;48.618;10.024;2023-05-08T04:33:06;94592.69;;;13.73;100.00
27643;BME280;15053;48.618;10.024;2023-05-08T04:35:34;94606.38;;;13.70;100.00
27643;BME280;15053;48.618;10.024;2023-05-08T04:38:01;94610.03;;;13.69;100.00
27643;BME280;15053;48.618;10.024;2023-05-08T04:40:28;94608.50;;;13.68;100.00
27643;BME280;15053;48.618;10.024;2023-05-08T04:42:55;94612.19;;;13.67;100.00
27643;BME280;15053;48.618;10.024;2023-05-08T04:45:22;94615.09;;;13.66;100.00
27643;BME280;15053;48.618;10.024;2023-05-08T04:47:49;94621.09;;;13.66;100.00
27643;BME280;15053;48.618;10.024;2023-05-08T04:50:16;94618.78;;;13.65;100.00
27643;BME280;15053;48.618;10.024;2023-05-08T04:52:42;94633.59;;;13.69;100.00
27643;BME280;15053;48.618;10.024;2023-05-08T04:55:09;94623.53;;;13.63;99.97
27643;BME280;15053;48.618;10.024;2023-05-08T04:57:37;94638.66;;;13.66;100.00
27643;BME280;15053;48.618;10.024;2023-05-08T05:00:04;94629.53;;;13.63;100.00
27643;BME280;15053;48.618;10.024;2023-05-08T05:02:35;94630.13;;;13.60;100.00
27643;BME280;15053;48.618;10.024;2023-05-08T05:05:03;94632.88;;;13.55;100.00
27643;BME280;15053;48.618;10.024;2023-05-08T05:07:30;94630.84;;;13.52;99.37
27643;BME280;15053;48.618;10.024;2023-05-08T05:09:58;94629.69;;;13.44;99.59
27643;BME280;15053;48.618;10.024;2023-05-08T05:12:25;94638.81;;;13.47;99.54
27643;BME280;15053;48.618;10.024;2023-05-08T05:14:52;94637.25;;;13.46;99.60
27643;BME280;15053;48.618;10.024;2023-05-08T05:17:19;94639.97;;;13.41;99.26
27643;BME280;15053;48.618;10.024;2023-05-08T05:19:45;94636.09;;;13.38;99.53
27643;BME280;15053;48.618;10.024;2023-05-08T05:22:12;94639.03;;;13.37;99.22
27643;BME280;15053;48.618;10.024;2023-05-08T05:24:38;94648.25;;;13.34;99.66
27643;BME280;15053;48.618;10.024;2023-05-08T05:27:06;94644.38;;;13.32;99.65
27643;BME280;15053;48.618;10.024;2023-05-08T05:29:33;94645.44;;;13.31;99.38
27643;BME280;15053;48.618;10.024;2023-05-08T05:32:00;94650.66;;;13.31;99.75
27643;BME280;15053;48.618;10.024;2023-05-08T05:34:27;94648.63;;;13.28;99.41
27643;BME280;15053;48.618;10.024;2023-05-08T05:36:53;94648.34;;;13.29;99.31
27643;BME280;15053;48.618;10.024;2023-05-08T05:39:20;94652.22;;;13.32;98.96
27643;BME280;15053;48.618;10.024;2023-05-08T05:41:47;94647.47;;;13.34;99.36
27643;BME280;15053;48.618;10.024;2023-05-08T05:44:13;94648.91;;;13.40;99.04
27643;BME280;15053;48.618;10.024;2023-05-08T05:46:40;94650.31;;;13.46;99.17
27643;BME280;15053;48.618;10.024;2023-05-08T05:49:09;94649.16;;;13.52;99.17
27643;BME280;15053;48.618;10.024;2023-05-08T05:51:37;94653.34;;;13.53;98.71
27643;BME280;15053;48.618;10.024;2023-05-08T05:54:04;94654.13;;;13.53;98.93
27643;BME280;15053;48.618;10.024;2023-05-08T05:56:30;94654.13;;;13.53;99.02
27643;BME280;15053;48.618;10.024;2023-05-08T05:58:57;94657.66;;;13.57;99.25
27643;BME280;15053;48.618;10.024;2023-05-08T06:01:24;94658.16;;;13.59;98.68
27643;BME280;15053;48.618;10.024;2023-05-08T06:03:55;94654.78;;;13.59;99.05
27643;BME280;15053;48.618;10.024;2023-05-08T06:06:21;94657.09;;;13.60;99.34
27643;BME280;15053;48.618;10.024;2023-05-08T06:08:48;94657.28;;;13.64;99.21
27643;BME280;15053;48.618;10.024;2023-05-08T06:11:14;94651.16;;;13.69;99.20
27643;BME280;15053;48.618;10.024;2023-05-08T06:13:41;94655.00;;;13.71;99.36
27643;BME280;15053;48.618;10.024;2023-05-08T06:16:11;94653.50;;;13.70;98.60
27643;BME280;15053;48.618;10.024;2023-05-08T06:18:37;94664.72;;;13.71;98.23
27643;BME280;15053;48.618;10.024;2023-05-08T06:21:04;94667.03;;;13.72;98.45
27643;BME280;15053;48.618;10.024;2023-05-08T06:23:30;94656.25;;;13.74;97.61
27643;BME280;15053;48.618;10.024;2023-05-08T06:25:57;94662.59;;;13.73;97.77
27643;BME280;15053;48.618;10.024;2023-05-08T06:28:23;94665.22;;;13.73;97.43
27643;BME280;15053;48.618;10.024;2023-05-08T06:30:51;94667.50;;;13.74;97.11
27643;BME280;15053;48.618;10.024;2023-05-08T06:33:18;94670.91;;;13.75;96.93
27643;BME280;15053;48.618;10.024;2023-05-08T06:35:45;94661.09;;;13.80;96.25
27643;BME280;15053;48.618;10.024;2023-05-08T06:38:13;94666.53;;;13.84;96.42
27643;BME280;15053;48.618;10.024;2023-05-08T06:40:43;94674.53;;;13.87;95.95
27643;BME280;15053;48.618;10.024;2023-05-08T06:43:11;94673.78;;;13.87;95.96
27643;BME280;15053;48.618;10.024;2023-05-08T06:45:38;94672.44;;;13.89;95.77
27643;BME280;15053;48.618;10.024;2023-05-08T06:48:05;94678.44;;;13.90;95.79
27643;BME280;15053;48.618;10.024;2023-05-08T06:50:32;94673.97;;;13.90;96.06
27643;BME280;15053;48.618;10.024;2023-05-08T06:52:58;94679.84;;;13.96;95.63
27643;BME280;15053;48.618;10.024;2023-05-08T06:55:25;94672.38;;;14.03;95.63
27643;BME280;15053;48.618;10.024;2023-05-08T06:57:51;94673.50;;;14.10;95.24
27643;BME280;15053;48.618;10.024;2023-05-08T07:00:18;94675.22;;;14.15;95.11
27643;BME280;15053;48.618;10.024;2023-05-08T07:02:44;94672.66;;;14.24;94.81
27643;BME280;15053;48.618;10.024;2023-05-08T07:05:11;94685.63;;;14.29;94.91
27643;BME280;15053;48.618;10.024;2023-05-08T07:07:38;94680.59;;;14.32;94.12
27643;BME280;15053;48.618;10.024;2023-05-08T07:10:05;94682.31;;;14.37;94.30
27643;BME280;15053;48.618;10.024;2023-05-08T07:12:33;94675.09;;;14.42;93.75
27643;BME280;15053;48.618;10.024;2023-05-08T07:14:59;94683.63;;;14.48;93.77
27643;BME280;15053;48.618;10.024;2023-05-08T07:17:46;94681.66;;;14.53;93.45
27643;BME280;15053;48.618;10.024;2023-05-08T07:20:12;94681.78;;;14.48;92.68
27643;BME280;15053;48.618;10.024;2023-05-08T07:22:39;94676.84;;;14.47;92.55
27643;BME280;15053;48.618;10.024;2023-05-08T07:25:06;94682.56;;;14.49;92.59
27643;BME280;15053;48.618;10.024;2023-05-08T07:27:33;94688.84;;;14.48;92.19
27643;BME280;15053;48.618;10.024;2023-05-08T07:29:59;94690.06;;;14.42;91.82
27643;BME280;15053;48.618;10.024;2023-05-08T07:32:29;94686.88;;;14.31;92.03
27643;BME280;15053;48.618;10.024;2023-05-08T07:34:57;94677.91;;;14.24;92.06
27643;BME280;15053;48.618;10.024;2023-05-08T07:37:23;94677.56;;;14.16;92.15
27643;BME280;15053;48.618;10.024;2023-05-08T07:39:50;94680.28;;;14.11;92.02
27643;BME280;15053;48.618;10.024;2023-05-08T07:42:16;94679.78;;;14.09;92.71
27643;BME280;15053;48.618;10.024;2023-05-08T07:44:46;94679.78;;;14.09;92.91
27643;BME280;15053;48.618;10.024;2023-05-08T07:47:20;94681.66;;;14.09;92.70
27643;BME280;15053;48.618;10.024;2023-05-08T07:49:46;94678.75;;;14.10;92.78
27643;BME280;15053;48.618;10.024;2023-05-08T07:52:13;94680.75;;;14.13;93.14
27643;BME280;15053;48.618;10.024;2023-05-08T07:54:39;94683.38;;;14.13;92.79
27643;BME280;15053;48.618;10.024;2023-05-08T07:57:06;94685.03;;;14.09;93.27
27643;BME280;15053;48.618;10.024;2023-05-08T07:59:32;94681.94;;;14.07;93.47
27643;BME280;15053;48.618;10.024;2023-05-08T08:01:59;94684.56;;;14.07;93.52
27643;BME280;15053;48.618;10.024;2023-05-08T08:04:25;94681.47;;;14.05;93.45
27643;BME280;15053;48.618;10.024;2023-05-08T08:06:53;94684.22;;;14.00;93.99
27643;BME280;15053;48.618;10.024;2023-05-08T08:09:20;94686.94;;;13.95;93.73
27643;BME280;15053;48.618;10.024;2023-05-08T08:11:47;94690.91;;;13.93;93.87
27643;BME280;15053;48.618;10.024;2023-05-08T08:14:13;94691.53;;;13.90;93.96
27643;BME280;15053;48.618;10.024;2023-05-08T08:16:40;94693.97;;;13.86;94.45
27643;BME280;15053;48.618;10.024;2023-05-08T08:19:07;94696.59;;;13.86;94.48
27643;BME280;15053;48.618;10.024;2023-05-08T08:21:40;94689.50;;;13.87;94.24
27643;BME280;15053;48.618;10.024;2023-05-08T08:24:07;94696.59;;;13.86;94.41
27643;BME280;15053;48.618;10.024;2023-05-08T08:26:33;94698.88;;;13.88;94.86
27643;BME280;15053;48.618;10.024;2023-05-08T08:29:00;94692.59;;;13.89;94.35
27643;BME280;15053;48.618;10.024;2023-05-08T08:31:29;94696.28;;;13.88;94.59
27643;BME280;15053;48.618;10.024;2023-05-08T08:33:56;94690.25;;;13.87;94.86
27643;BME280;15053;48.618;10.024;2023-05-08T08:36:22;94703.25;;;13.92;94.78
27643;BME280;15053;48.618;10.024;2023-05-08T08:38:49;94695.41;;;13.92;94.85
27643;BME280;15053;48.618;10.024;2023-05-08T08:41:15;94699.56;;;13.93;94.89
27643;BME280;15053;48.618;10.024;2023-05-08T08:43:42;94700.53;;;13.97;94.49
27643;BME280;15053;48.618;10.024;2023-05-08T08:46:10;94700.22;;;13.99;94.87
27643;BME280;15053;48.618;10.024;2023-05-08T08:48:42;94696.22;;;14.01;94.49
27643;BME280;15053;48.618;10.024;2023-05-08T08:51:32;94706.09;;;14.04;94.66
27643;BME280;15053;48.618;10.024;2023-05-08T08:54:10;94702.44;;;14.05;94.54
27643;BME280;15053;48.618;10.024;2023-05-08T08:56:38;94702.63;;;14.09;94.46
27643;BME280;15053;48.618;10.024;2023-05-08T08:59:07;94708.03;;;14.12;94.69
27643;BME280;15053;48.618;10.024;2023-05-08T09:01:35;94703.16;;;14.19;94.40
27643;BME280;15053;48.618;10.024;2023-05-08T09:04:03;94705.06;;;14.28;94.21
27643;BME280;15053;48.618;10.024;2023-05-08T09:06:35;94706.88;;;14.41;94.46
27643;BME280;15053;48.618;10.024;2023-05-08T09:09:03;94703.22;;;14.50;94.32
27643;BME280;15053;48.618;10.024;2023-05-08T09:11:29;94703.25;;;14.59;93.91
27643;BME280;15053;48.618;10.024;2023-05-08T09:13:57;94707.13;;;14.61;93.46
27643;BME280;15053;48.618;10.024;2023-05-08T09:16:24;94709.75;;;14.61;93.25
27643;BME280;15053;48.618;10.024;2023-05-08T09:18:51;94708.41;;;14.64;93.23
27643;BME280;15053;48.618;10.024;2023-05-08T09:21:18;94712.56;;;14.65;92.99
27643;BME280;15053;48.618;10.024;2023-05-08T09:23:59;94704.56;;;14.70;92.67
27643;BME280;15053;48.618;10.024;2023-05-08T09:26:31;94704.41;;;14.75;92.30
27643;BME280;15053;48.618;10.024;2023-05-08T09:29:17;94710.03;;;14.82;92.53
27643;BME280;15053;48.618;10.024;2023-05-08T09:31:49;94705.22;;;14.75;92.15
27643;BME280;15053;48.618;10.024;2023-05-08T09:34:27;94711.09;;;14.81;92.55
27643;BME280;15053;48.618;10.024;2023-05-08T09:39:30;94718.59;;;14.96;91.70
27643;BME280;15053;48.618;10.024;2023-05-08T09:42:02;94707.31;;;14.96;91.54
27643;BME280;15053;48.618;10.024;2023-05-08T09:44:48;94715.50;;;15.03;91.60
27643;BME280;15053;48.618;10.024;2023-05-08T09:47:22;94714.13;;;15.05;91.27
27643;BME280;15053;48.618;10.024;2023-05-08T09:52:26;94720.50;;;15.13;91.04
27643;BME280;15053;48.618;10.024;2023-05-08T09:54:57;94728.56;;;15.25;90.92
27643;BME280;15053;48.618;10.024;2023-05-08T09:57:25;94725.34;;;15.28;90.71
27643;BME280;15053;48.618;10.024;2023-05-08T10:02:32;94725.06;;;15.38;90.47
27643;BME280;15053;48.618;10.024;2023-05-08T10:04:59;94730.00;;;15.40;89.96
27643;BME280;15053;48.618;10.024;2023-05-08T10:07:31;94732.16;;;15.38;90.17
27643;BME280;15053;48.618;10.024;2023-05-08T10:10:03;94726.75;;;15.34;89.90
27643;BME280;15053;48.618;10.024;2023-05-08T10:12:30;94729.22;;;15.39;90.05
27643;BME280;15053;48.618;10.024;2023-05-08T10:14:57;94733.59;;;15.44;89.89
27643;BME280;15053;48.618;10.024;2023-05-08T10:17:26;94735.31;;;15.48;89.83
27643;BME280;15053;48.618;10.024;2023-05-08T10:19:58;94731.91;;;15.48;89.59
27643;BME280;15053;48.618;10.024;2023-05-08T10:22:27;94730.25;;;15.52;89.47
27643;BME280;15053;48.618;10.024;2023-05-08T10:24:55;94733.16;;;15.50;89.05
27643;BME280;15053;48.618;10.024;2023-05-08T10:30:01;94732.03;;;15.43;89.04
27643;BME280;15053;48.618;10.024;2023-05-08T10:32:36;94729.28;;;15.48;89.08
27643;BME280;15053;48.618;10.024;2023-05-08T10:35:08;94727.25;;;15.45;89.02
27643;BME280;15053;48.618;10.024;2023-05-08T10:37:37;94727.84;;;15.42;89.03
27643;BME280;15053;48.618;10.024;2023-05-08T10:40:04;94729.22;;;15.39;89.32
27643;BME280;15053;48.618;10.024;2023-05-08T10:42:32;94734.31;;;15.35;89.28
27643;BME280;15053;48.618;10.024;2023-05-08T10:45:02;94730.44;;;15.33;89.71
27643;BME280;15053;48.618;10.024;2023-05-08T10:50:37;94730.72;;;15.23;89.72
27643;BME280;15053;48.618;10.024;2023-05-08T10:53:18;94726.69;;;15.17;89.77
27643;BME280;15053;48.618;10.024;2023-05-08T10:55:49;94728.50;;;15.08;89.65
27643;BME280;15053;48.618;10.024;2023-05-08T11:03:15;94723.97;;;14.91;90.21
27643;BME280;15053;48.618;10.024;2023-05-08T11:05:59;94724.56;;;14.88;90.59
27643;BME280;15053;48.618;10.024;2023-05-08T11:08:27;94730.88;;;14.87;90.99
27643;BME280;15053;48.618;10.024;2023-05-08T11:13:28;94726.69;;;14.86;90.91
27643;BME280;15053;48.618;10.024;2023-05-08T11:15:56;94725.50;;;14.92;91.13
27643;BME280;15053;48.618;10.024;2023-05-08T11:18:22;94726.44;;;14.96;91.30
27643;BME280;15053;48.618;10.024;2023-05-08T11:21:19;94714.41;;;14.95;90.55
27643;BME280;15053;48.618;10.024;2023-05-08T11:23:55;94723.84;;;14.96;90.89
27643;BME280;15053;48.618;10.024;2023-05-08T11:26:37;94722.44;;;14.99;90.79
27643;BME280;15053;48.618;10.024;2023-05-08T11:29:15;94724.75;;;15.00;90.52
27643;BME280;15053;48.618;10.024;2023-05-08T11:31:48;94722.63;;;15.02;90.75
27643;BME280;15053;48.618;10.024;2023-05-08T11:37:11;94721.16;;;15.18;90.54
27643;BME280;15053;48.618;10.024;2023-05-08T11:39:41;94706.31;;;15.22;90.23
27643;BME280;15053;48.618;10.024;2023-05-08T11:47:49;94714.03;;;15.67;88.99
27643;BME280;15053;48.618;10.024;2023-05-08T11:50:25;94717.16;;;15.86;88.81
27643;BME280;15053;48.618;10.024;2023-05-08T11:52:52;94717.47;;;16.02;88.57
27643;BME280;15053;48.618;10.024;2023-05-08T11:55:18;94718.69;;;16.04;87.61
27643;BME280;15053;48.618;10.024;2023-05-08T11:57:45;94710.69;;;16.09;87.20
27643;BME280;15053;48.618;10.024;2023-05-08T12:00:12;94709.13;;;16.25;87.02
27643;BME280;15053;48.618;10.024;2023-05-08T12:02:41;94713.13;;;16.66;86.56
27643;BME280;15053;48.618;10.024;2023-05-08T12:05:09;94708.25;;;16.93;85.00
27643;BME280;15053;48.618;10.024;2023-05-08T12:07:43;94716.84;;;17.11;84.17
27643;BME280;15053;48.618;10.024;2023-05-08T12:10:12;94715.69;;;17.29;83.39
27643;BME280;15053;48.618;10.024;2023-05-08T12:12:41;94718.44;;;17.41;82.43
27643;BME280;15053;48.618;10.024;2023-05-08T12:15:09;94720.41;;;17.44;82.36
27643;BME280;15053;48.618;10.024;2023-05-08T12:17:36;94714.97;;;17.49;81.78
27643;BME280;15053;48.618;10.024;2023-05-08T12:20:17;94714.81;;;17.54;81.08
27643;BME280;15053;48.618;10.024;2023-05-08T12:22:51;94712.97;;;17.55;80.64
27643;BME280;15053;48.618;10.024;2023-05-08T12:25:19;94709.66;;;17.58;80.22
27643;BME280;15053;48.618;10.024;2023-05-08T12:27:45;94708.97;;;17.69;79.65
27643;BME280;15053;48.618;10.024;2023-05-08T12:30:13;94713.38;;;17.65;79.24
27643;BME280;15053;48.618;10.024;2023-05-08T12:32:41;94715.16;;;17.74;79.23
27643;BME280;15053;48.618;10.024;2023-05-08T12:35:10;94711.72;;;17.82;78.84
27643;BME280;15053;48.618;10.024;2023-05-08T12:37:37;94711.13;;;17.97;78.61
27643;BME280;15053;48.618;10.024;2023-05-08T12:40:04;94707.06;;;17.99;77.41
27643;BME280;15053;48.618;10.024;2023-05-08T12:45:08;94712.44;;;18.44;76.50
27643;BME280;15053;48.618;10.024;2023-05-08T12:47:34;94700.88;;;18.57;75.85
27643;BME280;15053;48.618;10.024;2023-05-08T12:50:01;94697.00;;;19.12;75.00
27643;BME280;15053;48.618;10.024;2023-05-08T12:52:27;94698.16;;;19.59;73.72
27643;BME280;15053;48.618;10.024;2023-05-08T12:54:54;94703.44;;;19.71;72.67
27643;BME280;15053;48.618;10.024;2023-05-08T12:57:21;94702.06;;;19.89;71.73
27643;BME280;15053;48.618;10.024;2023-05-08T12:59:48;94701.16;;;19.97;70.35
27643;BME280;15053;48.618;10.024;2023-05-08T13:02:18;94697.66;;;19.93;69.70
27643;BME280;15053;48.618;10.024;2023-05-08T13:04:46;94702.41;;;19.76;69.53
27643;BME280;15053;48.618;10.024;2023-05-08T13:07:13;94695.72;;;19.54;70.05
27643;BME280;15053;48.618;10.024;2023-05-08T13:09:54;94694.63;;;19.43;70.04
27643;BME280;15053;48.618;10.024;2023-05-08T13:12:21;94693.63;;;19.23;70.32
27643;BME280;15053;48.618;10.024;2023-05-08T13:14:47;94709.00;;;18.97;70.58
27643;BME280;15053;48.618;10.024;2023-05-08T13:17:17;94695.50;;;18.66;71.38
27643;BME280;15053;48.618;10.024;2023-05-08T13:19:44;94690.69;;;18.47;72.12
27643;BME280;15053;48.618;10.024;2023-05-08T13:22:10;94691.50;;;18.27;72.81
27643;BME280;15053;48.618;10.024;2023-05-08T13:24:37;94701.88;;;18.11;73.41
27643;BME280;15053;48.618;10.024;2023-05-08T13:27:03;94671.75;;;17.80;74.22
27643;BME280;15053;48.618;10.024;2023-05-08T13:29:30;94695.38;;;17.88;74.69
27643;BME280;15053;48.618;10.024;2023-05-08T13:31:56;94699.50;;;17.77;74.56
27643;BME280;15053;48.618;10.024;2023-05-08T13:34:23;94699.84;;;17.67;75.16
27643;BME280;15053;48.618;10.024;2023-05-08T13:36:50;94698.81;;;17.59;75.33
27643;BME280;15053;48.618;10.024;2023-05-08T13:39:17;94704.88;;;17.51;75.75
27643;BME280;15053;48.618;10.024;2023-05-08T13:41:44;94706.16;;;17.45;76.07
27643;BME280;15053;48.618;10.024;2023-05-08T13:44:10;94701.06;;;17.40;76.52
27643;BME280;15053;48.618;10.024;2023-05-08T13:46:37;94694.13;;;17.36;76.55
27643;BME280;15053;48.618;10.024;2023-05-08T13:49:03;94696.19;;;17.30;76.65
27643;BME280;15053;48.618;10.024;2023-05-08T13:51:30;94696.63;;;17.32;76.63
27643;BME280;15053;48.618;10.024;2023-05-08T13:53:56;94692.31;;;17.28;76.91